createdAt,value
2022-10-07T00:00:36.856Z,101777.34
2022-10-07T00:03:45.900Z,101777.88
2022-10-07T00:07:00.847Z,101757.41
2022-10-07T00:10:15.875Z,101769.53
2022-10-07T00:13:23.860Z,101767.09
2022-10-07T00:16:41.912Z,101770.59
2022-10-07T00:19:50.874Z,101771.16
2022-10-07T00:23:05.888Z,101760.91
2022-10-07T00:26:28.872Z,101764.12
2022-10-07T00:29:30.743Z,101761.44
2022-10-07T00:32:45.862Z,101754.19
2022-10-07T00:35:47.653Z,101740.97
2022-10-07T00:39:05.785Z,101756.63
2022-10-07T00:42:20.779Z,101756.59
2022-10-07T00:45:22.580Z,101752.84
2022-10-07T00:48:39.776Z,101746.91
2022-10-07T00:51:55.777Z,101743.94
2022-10-07T00:55:17.770Z,101746.09
2022-10-07T00:58:25.770Z,101744.19
2022-10-07T01:01:34.694Z,101746.34
2022-10-07T01:04:43.798Z,101737.19
2022-10-07T01:07:59.393Z,101739.88
2022-10-07T01:11:33.819Z,101746.59
2022-10-07T01:15:15.799Z,101748.75
2022-10-07T01:18:50.775Z,101745.50
2022-10-07T01:22:21.790Z,101740.38
2022-10-07T01:26:14.781Z,101736.91
2022-10-07T01:29:29.817Z,101736.06
2022-10-07T01:32:43.739Z,101734.44
2022-10-07T01:35:58.796Z,101743.56
2022-10-07T01:39:13.103Z,101739.78
2022-10-07T01:42:28.790Z,101730.88
2022-10-07T01:45:38.797Z,101740.84
2022-10-07T01:48:47.822Z,101731.97
2022-10-07T01:52:28.777Z,101730.62
2022-10-07T01:56:13.028Z,101731.16
2022-10-07T01:59:41.344Z,101727.12
2022-10-07T02:03:04.805Z,101726.59
2022-10-07T02:06:24.777Z,101728.47
2022-10-07T02:09:39.445Z,101730.06
2022-10-07T02:13:01.784Z,101722.53
2022-10-07T02:16:26.176Z,101715.50
2022-10-07T02:19:44.796Z,101727.38
2022-10-07T02:22:55.770Z,101717.16
2022-10-07T02:26:05.473Z,101720.91
2022-10-07T02:29:23.803Z,101723.06
2022-10-07T02:32:41.766Z,101720.09
2022-10-07T02:35:56.854Z,101710.12
2022-10-07T02:39:19.772Z,101717.66
2022-10-07T02:42:37.808Z,101727.31
2022-10-07T02:45:45.777Z,101725.72
2022-10-07T02:49:06.794Z,101721.44
2022-10-07T02:52:24.784Z,101717.66
2022-10-07T02:55:40.805Z,101724.34
2022-10-07T02:58:44.246Z,101721.09
2022-10-07T03:02:01.871Z,101725.63
2022-10-07T03:05:19.795Z,101717.03
2022-10-07T03:08:28.785Z,101715.44
2022-10-07T03:11:45.773Z,101723.75
2022-10-07T03:14:47.581Z,101712.19
2022-10-07T03:18:02.785Z,101713.78
2022-10-07T03:21:17.800Z,101720.25
2022-10-07T03:24:26.767Z,101726.41
2022-10-07T03:27:42.052Z,101725.06
2022-10-07T03:30:44.017Z,101723.19
2022-10-07T03:33:58.812Z,101716.97
2022-10-07T03:37:00.584Z,101716.47
2022-10-07T03:40:22.785Z,101719.69
2022-10-07T03:43:38.776Z,101717.28
2022-10-07T03:46:40.927Z,101711.37
2022-10-07T03:49:55.809Z,101716.97
2022-10-07T03:52:57.502Z,101705.09
2022-10-07T03:56:11.781Z,101703.28
2022-10-07T03:59:19.796Z,101704.06
2022-10-07T04:02:28.453Z,101704.31
2022-10-07T04:05:43.791Z,101700.56
2022-10-07T04:08:59.789Z,101703.78
2022-10-07T04:12:08.323Z,101697.28
2022-10-07T04:15:17.796Z,101701.84
2022-10-07T04:18:39.814Z,101703.44
2022-10-07T04:21:48.258Z,101697.81
2022-10-07T04:25:02.789Z,101700.22
2022-10-07T04:28:26.881Z,101704.00
2022-10-07T04:31:28.819Z,101700.19
2022-10-07T04:34:43.795Z,101692.13
2022-10-07T04:37:54.809Z,101692.34
2022-10-07T04:41:11.786Z,101700.38
2022-10-07T04:44:26.806Z,101704.41
2022-10-07T04:47:35.341Z,101707.06
2022-10-07T04:50:49.797Z,101703.28
2022-10-07T04:54:04.797Z,101706.28
2022-10-07T04:57:06.630Z,101708.72
2022-10-07T05:00:22.815Z,101707.09
2022-10-07T05:03:27.223Z,101708.16
2022-10-07T05:06:41.804Z,101712.47
2022-10-07T05:09:56.791Z,101707.34
2022-10-07T05:12:58.625Z,101716.72
2022-10-07T05:16:13.871Z,101716.72
2022-10-07T05:19:22.799Z,101725.09
2022-10-07T05:22:31.675Z,101713.81
2022-10-07T05:25:46.780Z,101727.00
2022-10-07T05:29:01.807Z,101710.03
2022-10-07T05:32:10.409Z,101736.38
2022-10-07T05:35:24.793Z,101729.38
2022-10-07T05:38:39.823Z,101728.28
2022-10-07T05:41:48.052Z,101724.03
2022-10-07T05:45:02.852Z,101725.72
2022-10-07T05:48:17.779Z,101725.47
2022-10-07T05:51:21.510Z,101719.31
2022-10-07T05:54:38.782Z,101722.31
2022-10-07T05:57:40.642Z,101728.50
2022-10-07T06:01:07.728Z,101721.28
2022-10-07T06:04:12.361Z,101720.53
2022-10-07T06:07:29.601Z,101727.31
2022-10-07T06:10:40.800Z,101724.09
2022-10-07T06:13:50.810Z,101730.03
2022-10-07T06:16:58.931Z,101730.84
2022-10-07T06:20:14.791Z,101738.69
2022-10-07T06:23:29.807Z,101737.34
2022-10-07T06:26:37.828Z,101741.44
2022-10-07T06:29:46.555Z,101738.78
2022-10-07T06:33:03.781Z,101740.91
2022-10-07T06:36:07.170Z,101726.13
2022-10-07T06:39:22.791Z,101737.19
2022-10-07T06:42:30.830Z,101730.72
2022-10-07T06:45:39.366Z,101724.81
2022-10-07T06:48:53.826Z,101714.06
2022-10-07T06:51:55.745Z,101736.94
2022-10-07T06:55:10.826Z,101733.72
2022-10-07T06:58:12.957Z,101728.63
2022-10-07T07:01:28.066Z,101730.50
2022-10-07T07:04:36.377Z,101728.06
2022-10-07T07:07:50.820Z,101731.53
2022-10-07T07:11:13.811Z,101727.50
2022-10-07T07:14:28.819Z,101727.47
2022-10-07T07:17:44.086Z,101727.19
2022-10-07T07:20:58.809Z,101736.03
2022-10-07T07:24:02.186Z,101724.09
2022-10-07T07:27:16.828Z,101725.09
2022-10-07T07:30:24.791Z,101725.72
2022-10-07T07:33:33.302Z,101723.38
2022-10-07T07:36:55.855Z,101726.00
2022-10-07T07:40:11.060Z,101718.69
2022-10-07T07:43:25.813Z,101714.00
2022-10-07T07:46:44.051Z,101717.72
2022-10-07T07:49:52.695Z,101708.81
2022-10-07T07:53:07.829Z,101704.50
2022-10-07T07:56:24.812Z,101703.84
2022-10-07T07:59:27.366Z,101714.50
2022-10-07T08:02:42.135Z,101713.53
2022-10-07T08:05:50.393Z,101705.00
2022-10-07T08:08:58.833Z,101707.47
2022-10-07T08:12:08.171Z,101700.38
2022-10-07T08:15:16.839Z,101683.72
2022-10-07T08:18:31.847Z,101695.72
2022-10-07T08:21:33.652Z,101694.87
2022-10-07T08:24:48.876Z,101692.66
2022-10-07T08:27:50.769Z,101691.19
2022-10-07T08:31:09.830Z,101694.97
2022-10-07T08:34:24.884Z,101702.78
2022-10-07T08:37:26.719Z,101683.09
2022-10-07T08:40:59.829Z,101688.66
2022-10-07T08:44:17.133Z,101683.28
2022-10-07T08:47:47.110Z,101682.69
2022-10-07T08:51:22.840Z,101688.31
2022-10-07T08:54:31.402Z,101672.62
2022-10-07T08:58:08.321Z,101665.94
2022-10-07T09:01:30.805Z,101662.28
2022-10-07T09:04:52.845Z,101661.50
2022-10-07T09:08:11.837Z,101665.34
2022-10-07T09:11:22.735Z,101667.75
2022-10-07T09:14:34.813Z,101654.16
2022-10-07T09:17:54.057Z,101648.84
2022-10-07T09:21:13.841Z,101640.63
2022-10-07T09:24:32.843Z,101637.28
2022-10-07T09:27:41.321Z,101634.53
2022-10-07T09:30:55.878Z,101636.75
2022-10-07T09:33:57.768Z,101628.53
2022-10-07T09:37:24.856Z,101626.09
2022-10-07T09:40:55.875Z,101622.09
2022-10-07T09:44:22.841Z,101614.94
2022-10-07T09:47:33.849Z,101606.19
2022-10-07T09:50:49.848Z,101604.38
2022-10-07T09:54:08.664Z,101596.22
2022-10-07T09:57:35.864Z,101602.69
2022-10-07T10:00:56.836Z,101590.00
2022-10-07T10:04:05.438Z,101589.69
2022-10-07T10:07:44.154Z,101587.59
2022-10-07T10:10:55.399Z,101572.44
2022-10-07T10:14:03.836Z,101573.88
2022-10-07T10:17:42.845Z,101566.88
2022-10-07T10:20:44.639Z,101570.94
2022-10-07T10:24:10.844Z,101569.91
2022-10-07T10:27:38.875Z,101565.84
2022-10-07T10:31:04.262Z,101564.69
2022-10-07T10:34:38.841Z,101552.44
2022-10-07T10:37:46.869Z,101545.78
2022-10-07T10:41:26.835Z,101554.19
2022-10-07T10:45:03.847Z,101547.22
2022-10-07T10:48:30.889Z,101534.69
2022-10-07T10:52:03.864Z,101529.03
2022-10-07T10:55:51.869Z,101532.84
2022-10-07T10:59:28.824Z,101528.13
2022-10-07T11:02:37.511Z,101523.38
2022-10-07T11:05:46.846Z,101512.19
2022-10-07T11:08:57.702Z,101509.81
2022-10-07T11:12:11.872Z,101481.97
2022-10-07T11:15:37.867Z,101496.25
2022-10-07T11:19:06.022Z,101485.56
2022-10-07T11:22:24.861Z,101483.63
2022-10-07T11:25:43.523Z,101471.28
2022-10-07T11:28:59.855Z,101468.09
2022-10-07T11:32:13.874Z,101464.84
2022-10-07T11:35:38.869Z,101460.00
2022-10-07T11:38:50.188Z,101455.19
2022-10-07T11:42:21.861Z,101443.19
2022-10-07T11:45:36.351Z,101443.00
2022-10-07T11:48:50.872Z,101433.06
2022-10-07T11:52:27.877Z,101431.75
2022-10-07T11:55:45.320Z,101426.06
2022-10-07T11:59:11.861Z,101425.19
2022-10-07T12:02:35.961Z,101414.47
2022-10-07T12:05:50.477Z,101412.13
2022-10-07T12:08:58.853Z,101407.00
2022-10-07T12:12:13.151Z,101404.19
2022-10-07T12:15:32.874Z,101397.81
2022-10-07T12:19:23.463Z,101391.56
2022-10-07T12:22:32.462Z,101387.13
2022-10-07T12:25:48.875Z,101380.81
2022-10-07T12:29:05.859Z,101376.13
2022-10-07T12:32:47.175Z,101374.91
2022-10-07T12:35:55.858Z,101373.81
2022-10-07T12:39:10.881Z,101363.69
2022-10-07T12:42:19.940Z,101357.69
2022-10-07T12:45:36.918Z,101357.00
2022-10-07T12:49:24.869Z,101351.75
2022-10-07T12:52:52.885Z,101348.25
2022-10-07T12:56:08.881Z,101345.84
2022-10-07T12:59:47.575Z,101334.94
2022-10-07T13:03:45.869Z,101337.78
2022-10-07T13:07:33.187Z,101331.50
2022-10-07T13:10:59.850Z,101333.09
2022-10-07T13:14:35.142Z,101326.19
2022-10-07T13:17:57.905Z,101321.28
2022-10-07T13:21:18.879Z,101316.62
2022-10-07T13:24:28.814Z,101318.78
2022-10-07T13:27:44.888Z,101312.47
2022-10-07T13:30:53.537Z,101305.66
2022-10-07T13:34:21.876Z,101295.88
2022-10-07T13:37:43.896Z,101295.38
2022-10-07T13:41:03.609Z,101290.09
2022-10-07T13:44:21.898Z,101278.09
2022-10-07T13:47:28.597Z,101290.09
2022-10-07T13:50:42.952Z,101286.16
2022-10-07T13:54:03.874Z,101279.62
2022-10-07T13:57:14.900Z,101287.75
2022-10-07T14:00:32.892Z,101285.72
2022-10-07T14:03:34.586Z,101280.78
2022-10-07T14:07:02.883Z,101275.72
2022-10-07T14:10:11.532Z,101278.00
2022-10-07T14:13:21.931Z,101259.75
2022-10-07T14:16:36.940Z,101250.47
2022-10-07T14:19:52.254Z,101257.19
2022-10-07T14:23:12.918Z,101247.59
2022-10-07T14:26:27.888Z,101246.81
2022-10-07T14:29:43.882Z,101251.94
2022-10-07T14:33:17.903Z,101249.00
2022-10-07T14:36:27.135Z,101248.75
2022-10-07T14:39:39.899Z,101246.34
2022-10-07T14:43:01.903Z,101242.59
2022-10-07T14:46:17.782Z,101229.28
2022-10-07T14:49:25.991Z,101242.97
2022-10-07T14:52:44.358Z,101238.03
2022-10-07T14:55:59.971Z,101232.97
2022-10-07T14:59:20.887Z,101229.22
2022-10-07T15:02:35.916Z,101215.31
2022-10-07T15:05:50.906Z,101197.97
2022-10-07T15:08:52.712Z,101225.44
2022-10-07T15:12:07.881Z,101223.75
2022-10-07T15:15:16.919Z,101212.72
2022-10-07T15:18:31.895Z,101222.81
2022-10-07T15:21:40.451Z,101214.19
2022-10-07T15:24:48.913Z,101215.84
2022-10-07T15:27:57.901Z,101214.41
2022-10-07T15:31:15.978Z,101217.16
2022-10-07T15:34:24.919Z,101199.09
2022-10-07T15:37:36.857Z,101216.53
2022-10-07T15:40:59.928Z,101211.75
2022-10-07T15:44:18.233Z,101203.28
2022-10-07T15:47:32.930Z,101193.53
2022-10-07T15:50:57.983Z,101207.59
2022-10-07T15:54:13.925Z,101214.13
2022-10-07T15:57:28.881Z,101201.19
2022-10-07T16:00:37.012Z,101204.69
2022-10-07T16:03:47.123Z,101201.78
2022-10-07T16:07:01.923Z,101197.31
2022-10-07T16:10:12.997Z,101204.47
2022-10-07T16:13:27.922Z,101211.47
2022-10-07T16:16:36.891Z,101206.13
2022-10-07T16:19:45.530Z,101205.59
2022-10-07T16:22:59.889Z,101206.69
2022-10-07T16:26:33.988Z,101210.16
2022-10-07T16:29:42.526Z,101214.09
2022-10-07T16:32:56.906Z,101207.31
2022-10-07T16:35:58.681Z,101218.28
2022-10-07T16:39:14.907Z,101210.91
2022-10-07T16:42:29.917Z,101211.16
2022-10-07T16:45:39.510Z,101203.59
2022-10-07T16:48:49.954Z,101211.72
2022-10-07T16:52:04.907Z,101212.13
2022-10-07T16:55:13.862Z,101214.44
2022-10-07T16:58:22.905Z,101209.87
2022-10-07T17:01:38.985Z,101215.41
2022-10-07T17:04:47.491Z,101216.13
2022-10-07T17:08:01.896Z,101211.75
2022-10-07T17:11:18.946Z,101211.06
2022-10-07T17:14:21.758Z,101200.88
2022-10-07T17:17:36.910Z,101207.88
2022-10-07T17:20:38.833Z,101202.59
2022-10-07T17:23:54.969Z,101201.88
2022-10-07T17:27:09.942Z,101202.50
2022-10-07T17:30:18.836Z,101206.37
2022-10-07T17:33:34.939Z,101199.50
2022-10-07T17:36:49.911Z,101205.56
2022-10-07T17:39:58.419Z,101203.47
2022-10-07T17:43:13.909Z,101201.19
2022-10-07T17:46:23.779Z,101196.66
2022-10-07T17:49:31.892Z,101211.09
2022-10-07T17:52:46.912Z,101208.16
2022-10-07T17:55:52.318Z,101206.06
2022-10-07T17:59:07.926Z,101198.06
2022-10-07T18:02:23.183Z,101197.03
2022-10-07T18:05:31.514Z,101200.34
2022-10-07T18:08:40.928Z,101203.34
2022-10-07T18:11:49.811Z,101193.91
2022-10-07T18:15:05.237Z,101192.91
2022-10-07T18:18:07.067Z,101184.62
2022-10-07T18:21:22.210Z,101186.00
2022-10-07T18:24:25.491Z,101187.09
2022-10-07T18:27:39.932Z,101161.69
2022-10-07T18:30:47.933Z,101176.69
2022-10-07T18:33:56.485Z,101175.38
2022-10-07T18:37:10.950Z,101178.69
2022-10-07T18:40:13.100Z,101180.38
2022-10-07T18:43:35.969Z,101179.59
2022-10-07T18:46:52.285Z,101188.78
2022-10-07T18:49:54.633Z,101180.16
2022-10-07T18:53:11.388Z,101178.34
2022-10-07T18:56:24.847Z,101163.13
2022-10-07T18:59:40.407Z,101165.31
2022-10-07T19:02:57.088Z,101161.81
2022-10-07T19:06:12.282Z,101164.00
2022-10-07T19:09:30.643Z,101165.72
2022-10-07T19:12:46.352Z,101166.91
2022-10-07T19:15:55.297Z,101163.13
2022-10-07T19:19:04.948Z,101169.41
2022-10-07T19:22:19.947Z,101167.31
2022-10-07T19:25:21.705Z,101167.91
2022-10-07T19:28:36.970Z,101165.59
2022-10-07T19:31:47.955Z,101162.37
2022-10-07T19:34:56.151Z,101164.03
2022-10-07T19:38:08.738Z,101168.16
2022-10-07T19:41:19.922Z,101163.09
2022-10-07T19:44:41.948Z,101171.78
2022-10-07T19:47:44.364Z,101162.66
2022-10-07T19:51:03.943Z,101164.66
2022-10-07T19:54:12.927Z,101167.91
2022-10-07T19:57:21.732Z,101159.31
2022-10-07T20:00:31.935Z,101158.59
2022-10-07T20:03:47.518Z,101150.84
2022-10-07T20:07:01.942Z,101158.72
2022-10-07T20:10:16.948Z,101164.69
2022-10-07T20:13:32.903Z,101154.06
2022-10-07T20:16:42.021Z,101164.25
2022-10-07T20:19:49.925Z,101156.25
2022-10-07T20:22:58.442Z,101164.41
2022-10-07T20:26:12.948Z,101163.38
2022-10-07T20:29:27.932Z,101159.72
2022-10-07T20:32:31.622Z,101162.47
2022-10-07T20:35:45.960Z,101164.66
2022-10-07T20:39:12.929Z,101158.44
2022-10-07T20:42:21.196Z,101157.94
2022-10-07T20:45:35.956Z,101163.59
2022-10-07T20:48:40.182Z,101160.97
2022-10-07T20:52:01.919Z,101165.37
2022-10-07T20:55:17.940Z,101158.38
2022-10-07T20:58:25.930Z,101162.13
2022-10-07T21:01:34.486Z,101159.56
2022-10-07T21:04:42.947Z,101161.25
2022-10-07T21:07:54.697Z,101159.91
2022-10-07T21:11:11.931Z,101152.72
2022-10-07T21:14:20.944Z,101138.84
2022-10-07T21:17:35.944Z,101146.69
2022-10-07T21:20:43.944Z,101158.28
2022-10-07T21:23:52.495Z,101156.19
2022-10-07T21:27:10.951Z,101153.81
2022-10-07T21:30:18.932Z,101154.34
2022-10-07T21:33:33.963Z,101152.22
2022-10-07T21:36:41.656Z,101153.88
2022-10-07T21:39:55.977Z,101149.63
2022-10-07T21:43:11.153Z,101151.00
2022-10-07T21:46:26.075Z,101149.16
2022-10-07T21:49:40.937Z,101141.63
2022-10-07T21:52:42.837Z,101140.28
2022-10-07T21:55:57.940Z,101140.59
2022-10-07T21:59:06.552Z,101136.56
2022-10-07T22:02:14.964Z,101137.94
2022-10-07T22:05:30.010Z,101133.34
2022-10-07T22:08:33.052Z,101136.84
2022-10-07T22:11:49.026Z,101132.56
2022-10-07T22:14:56.965Z,101126.66
2022-10-07T22:18:11.970Z,101128.84
2022-10-07T22:21:31.949Z,101128.56
2022-10-07T22:24:40.207Z,101119.13
2022-10-07T22:27:57.939Z,101111.13
2022-10-07T22:31:02.848Z,101115.41
2022-10-07T22:34:17.945Z,101111.72
2022-10-07T22:37:32.973Z,101103.91
2022-10-07T22:40:38.156Z,101107.97
2022-10-07T22:43:59.936Z,101102.34
2022-10-07T22:47:14.934Z,101104.47
2022-10-07T22:50:29.938Z,101100.22
2022-10-07T22:53:38.950Z,101088.47
2022-10-07T22:56:47.470Z,101097.03
2022-10-07T23:00:01.934Z,101102.94
2022-10-07T23:03:10.520Z,101100.84
2022-10-07T23:06:25.943Z,101094.16
2022-10-07T23:09:33.968Z,101093.66
2022-10-07T23:12:42.758Z,101091.81
2022-10-07T23:16:14.979Z,101098.25
2022-10-07T23:19:29.941Z,101081.59
2022-10-07T23:22:31.696Z,101080.25
2022-10-07T23:25:49.939Z,101082.13
2022-10-07T23:28:52.794Z,101090.19
2022-10-07T23:32:07.954Z,101084.81
2022-10-07T23:35:15.930Z,101084.81
2022-10-07T23:38:24.510Z,101080.53
2022-10-07T23:41:38.939Z,101078.41
2022-10-07T23:44:54.210Z,101077.87
2022-10-07T23:48:08.953Z,101077.37
2022-10-07T23:51:26.977Z,101074.69
2022-10-07T23:54:41.938Z,101069.31
2022-10-07T23:57:56.934Z,101073.87
